createdAt,value
2022-12-22T00:00:20.139Z,47.30
2022-12-22T00:03:32.447Z,44.30
2022-12-22T00:06:19.389Z,52.20
2022-12-22T00:09:06.274Z,53.70
2022-12-22T00:11:52.946Z,51.70
2022-12-22T00:14:39.488Z,57.30
2022-12-22T00:20:20.615Z,60.70
2022-12-22T00:23:07.505Z,41.60
2022-12-22T00:25:54.421Z,40.80
2022-12-22T00:28:40.995Z,48.00
2022-12-22T00:31:28.172Z,47.60
2022-12-22T00:34:15.076Z,44.80
2022-12-22T00:37:02.991Z,41.00
2022-12-22T00:39:49.887Z,37.10
2022-12-22T00:42:36.930Z,43.50
2022-12-22T00:45:24.329Z,47.30
2022-12-22T00:48:11.077Z,48.70
2022-12-22T00:53:44.564Z,57.40
2022-12-22T00:56:31.538Z,71.10
2022-12-22T00:59:19.201Z,65.30
2022-12-22T01:02:06.156Z,53.60
2022-12-22T01:04:52.980Z,49.10
2022-12-22T01:10:32.743Z,53.40
2022-12-22T01:13:19.289Z,59.50
2022-12-22T01:16:06.002Z,62.70
2022-12-22T01:21:39.950Z,77.80
2022-12-22T01:24:35.693Z,68.20
2022-12-22T01:27:23.526Z,67.70
2022-12-22T01:30:10.496Z,52.40
2022-12-22T01:32:57.421Z,47.10
2022-12-22T01:35:49.224Z,44.80
2022-12-22T01:38:35.935Z,49.70
2022-12-22T01:44:17.789Z,50.90
2022-12-22T01:49:59.722Z,47.10
2022-12-22T01:52:53.596Z,39.10
2022-12-22T01:55:43.550Z,54.10
2022-12-22T01:58:45.242Z,48.00
2022-12-22T02:01:32.556Z,52.00
2022-12-22T02:04:20.495Z,48.30
2022-12-22T02:07:11.698Z,42.50
2022-12-22T02:10:37.748Z,57.40
2022-12-22T02:13:52.857Z,60.00
2022-12-22T02:17:18.203Z,50.00
2022-12-22T02:20:38.882Z,41.50
2022-12-22T02:24:10.269Z,42.80
2022-12-22T02:27:05.115Z,37.40
2022-12-22T02:30:05.914Z,48.70
2022-12-22T02:32:56.642Z,45.40
2022-12-22T02:35:43.449Z,43.80
2022-12-22T02:38:40.346Z,43.40
2022-12-22T02:41:38.911Z,44.20
2022-12-22T02:45:10.825Z,45.80
2022-12-22T02:48:22.567Z,54.20
2022-12-22T02:51:23.316Z,53.80
2022-12-22T02:54:16.232Z,50.00
2022-12-22T02:57:03.799Z,47.30
2022-12-22T02:59:50.465Z,45.90
2022-12-22T03:05:24.769Z,46.70
2022-12-22T03:08:11.316Z,61.00
2022-12-22T03:10:58.239Z,61.30
2022-12-22T03:13:45.294Z,59.60
2022-12-22T03:16:32.270Z,48.30
2022-12-22T03:19:19.096Z,51.00
2022-12-22T03:22:06.029Z,63.20
2022-12-22T03:24:52.901Z,45.60
2022-12-22T03:27:21.044Z,48.30
2022-12-22T03:29:49.183Z,51.90
2022-12-22T03:32:18.806Z,57.50
2022-12-22T03:34:46.939Z,57.50
2022-12-22T03:37:15.112Z,49.30
2022-12-22T03:39:43.379Z,50.50
2022-12-22T03:42:31.068Z,49.00
2022-12-22T03:45:17.935Z,51.30
2022-12-22T03:47:46.050Z,49.30
2022-12-22T03:50:14.319Z,51.60
2022-12-22T03:52:42.501Z,47.70
2022-12-22T03:55:10.609Z,51.20
2022-12-22T03:57:38.812Z,50.60
2022-12-22T04:00:08.643Z,58.90
2022-12-22T04:02:40.093Z,65.10
2022-12-22T04:05:09.240Z,72.30
2022-12-22T04:07:37.394Z,92.00
2022-12-22T04:10:25.811Z,77.30
2022-12-22T04:12:54.623Z,68.10
2022-12-22T04:15:32.436Z,70.30
2022-12-22T04:18:00.619Z,69.20
2022-12-22T04:20:29.226Z,66.20
2022-12-22T04:22:57.769Z,70.50
2022-12-22T04:25:27.130Z,64.40
2022-12-22T04:27:55.432Z,68.80
2022-12-22T04:30:23.655Z,75.10
2022-12-22T04:32:51.856Z,64.00
2022-12-22T04:35:20.041Z,75.80
2022-12-22T04:37:49.643Z,68.90
2022-12-22T04:40:18.671Z,64.90
2022-12-22T04:42:47.090Z,63.80
2022-12-22T04:45:15.684Z,66.20
2022-12-22T04:47:43.875Z,65.30
2022-12-22T04:50:12.060Z,70.70
2022-12-22T04:52:40.277Z,68.90
2022-12-22T04:55:09.547Z,77.90
2022-12-22T04:57:40.824Z,63.40
2022-12-22T05:00:10.891Z,59.40
2022-12-22T05:02:39.053Z,62.40
2022-12-22T05:05:08.731Z,64.20
2022-12-22T05:07:37.592Z,67.70
2022-12-22T05:10:06.931Z,65.90
2022-12-22T05:12:53.520Z,71.60
2022-12-22T05:15:33.956Z,55.70
2022-12-22T05:18:02.951Z,65.90
2022-12-22T05:20:32.347Z,66.40
2022-12-22T05:23:00.494Z,69.30
2022-12-22T05:25:34.715Z,72.50
2022-12-22T05:28:04.176Z,66.10
2022-12-22T05:30:32.432Z,67.80
2022-12-22T05:33:00.725Z,64.50
2022-12-22T05:35:28.964Z,68.20
2022-12-22T05:37:57.133Z,65.80
2022-12-22T05:40:26.771Z,82.80
2022-12-22T05:42:55.636Z,80.80
2022-12-22T05:45:24.043Z,71.70
2022-12-22T05:47:52.933Z,67.60
2022-12-22T05:50:25.211Z,60.60
2022-12-22T05:53:00.347Z,60.60
2022-12-22T05:55:28.667Z,63.20
2022-12-22T05:57:56.947Z,63.90
2022-12-22T06:00:25.362Z,60.60
2022-12-22T06:02:53.638Z,61.80
2022-12-22T06:05:22.115Z,66.40
2022-12-22T06:07:50.387Z,72.50
2022-12-22T06:10:18.654Z,56.50
2022-12-22T06:12:46.851Z,57.40
2022-12-22T06:15:16.149Z,58.90
2022-12-22T06:17:45.440Z,63.60
2022-12-22T06:20:14.396Z,64.90
2022-12-22T06:22:42.597Z,63.40
2022-12-22T06:25:17.553Z,60.70
2022-12-22T06:27:47.769Z,69.50
2022-12-22T06:30:16.768Z,74.00
2022-12-22T06:32:45.089Z,88.20
2022-12-22T06:35:13.628Z,69.30
2022-12-22T06:37:41.903Z,62.50
2022-12-22T06:40:10.752Z,63.10
2022-12-22T06:43:20.315Z,69.80
2022-12-22T06:45:48.540Z,75.20
2022-12-22T06:48:16.806Z,68.60
2022-12-22T06:50:45.328Z,63.20
2022-12-22T06:53:13.729Z,73.40
2022-12-22T06:55:41.845Z,73.90
2022-12-22T06:58:09.998Z,65.20
2022-12-22T07:00:38.647Z,68.80
2022-12-22T07:03:07.135Z,82.40
2022-12-22T07:05:35.543Z,72.30
2022-12-22T07:08:08.472Z,66.50
2022-12-22T07:10:56.347Z,75.00
2022-12-22T07:13:31.979Z,68.00
2022-12-22T07:16:02.525Z,74.30
2022-12-22T07:18:33.603Z,84.70
2022-12-22T07:21:04.805Z,62.80
2022-12-22T07:23:33.500Z,66.50
2022-12-22T07:26:02.201Z,68.70
2022-12-22T07:28:36.810Z,62.30
2022-12-22T07:31:05.896Z,63.30
2022-12-22T07:33:34.180Z,60.90
2022-12-22T07:36:18.689Z,68.20
2022-12-22T07:38:50.249Z,64.30
2022-12-22T07:41:38.931Z,66.90
2022-12-22T07:44:08.226Z,69.40
2022-12-22T07:46:40.539Z,60.70
2022-12-22T07:49:29.738Z,65.60
2022-12-22T07:51:59.314Z,65.40
2022-12-22T07:54:28.631Z,62.90
2022-12-22T07:56:56.904Z,61.80
2022-12-22T07:59:25.018Z,68.70
2022-12-22T08:01:53.541Z,63.90
2022-12-22T08:04:22.682Z,69.00
2022-12-22T08:06:50.996Z,71.50
2022-12-22T08:09:21.694Z,63.40
2022-12-22T08:11:50.358Z,64.60
2022-12-22T08:14:18.731Z,65.10
2022-12-22T08:16:47.090Z,63.50
2022-12-22T08:19:15.629Z,69.20
2022-12-22T08:21:50.329Z,62.80
2022-12-22T08:24:22.021Z,62.10
2022-12-22T08:26:55.791Z,63.40
2022-12-22T08:29:38.738Z,58.10
2022-12-22T08:32:07.302Z,70.80
2022-12-22T08:34:35.652Z,71.30
2022-12-22T08:37:08.016Z,65.00
2022-12-22T08:39:39.289Z,63.70
2022-12-22T08:42:11.862Z,63.30
2022-12-22T08:44:40.066Z,67.30
2022-12-22T08:47:14.855Z,66.30
2022-12-22T08:49:44.812Z,62.00
2022-12-22T08:52:18.404Z,65.90
2022-12-22T08:54:47.546Z,65.90
2022-12-22T08:57:15.751Z,64.00
2022-12-22T08:59:44.050Z,66.90
2022-12-22T09:02:12.277Z,58.90
2022-12-22T09:04:40.441Z,58.60
2022-12-22T09:07:08.895Z,65.80
2022-12-22T09:09:37.220Z,64.90
2022-12-22T09:12:06.026Z,59.90
2022-12-22T09:14:34.289Z,62.60
2022-12-22T09:17:02.582Z,65.60
2022-12-22T09:19:30.891Z,58.10
2022-12-22T09:21:58.977Z,57.00
2022-12-22T09:24:27.298Z,56.30
2022-12-22T09:26:55.570Z,58.50
2022-12-22T09:29:23.917Z,58.80
2022-12-22T09:31:52.171Z,54.40
2022-12-22T09:34:20.405Z,58.00
2022-12-22T09:36:48.681Z,50.50
2022-12-22T09:39:17.172Z,57.70
2022-12-22T09:41:53.107Z,59.40
2022-12-22T09:44:42.342Z,59.30
2022-12-22T09:47:38.947Z,57.80
2022-12-22T09:50:16.125Z,61.30
2022-12-22T09:52:50.322Z,64.60
2022-12-22T09:55:48.532Z,66.50
2022-12-22T09:58:26.227Z,70.30
2022-12-22T10:01:26.550Z,64.00
2022-12-22T10:04:12.964Z,63.20
2022-12-22T10:06:59.206Z,68.00
2022-12-22T10:12:25.101Z,64.10
2022-12-22T10:14:55.094Z,68.00
2022-12-22T10:17:26.628Z,65.60
2022-12-22T10:20:07.109Z,65.80
2022-12-22T10:22:47.601Z,57.00
2022-12-22T10:25:52.398Z,67.10
2022-12-22T10:28:27.235Z,61.30
2022-12-22T10:31:21.309Z,61.00
2022-12-22T10:33:54.851Z,66.70
2022-12-22T10:36:31.082Z,59.30
2022-12-22T10:39:11.132Z,65.40
2022-12-22T10:41:47.919Z,55.60
2022-12-22T10:44:15.920Z,60.30
2022-12-22T10:46:47.105Z,60.80
2022-12-22T10:49:20.781Z,61.90
2022-12-22T10:51:56.046Z,68.90
2022-12-22T10:54:38.516Z,54.80
2022-12-22T10:57:16.642Z,61.80
2022-12-22T10:59:56.884Z,57.10
2022-12-22T11:02:38.487Z,61.20
2022-12-22T11:05:12.139Z,50.50
2022-12-22T11:07:43.402Z,63.00
2022-12-22T11:10:14.863Z,54.80
2022-12-22T11:12:51.708Z,55.00
2022-12-22T11:18:34.028Z,56.00
2022-12-22T11:21:24.883Z,57.70
2022-12-22T11:24:21.817Z,59.00
2022-12-22T11:27:25.935Z,50.40
2022-12-22T11:30:20.806Z,52.40
2022-12-22T11:33:23.784Z,55.50
2022-12-22T11:36:01.236Z,44.60
2022-12-22T11:38:46.972Z,48.20
2022-12-22T11:41:33.793Z,44.50
2022-12-22T11:44:45.360Z,51.60
2022-12-22T11:47:58.233Z,43.20
2022-12-22T11:51:01.999Z,48.60
2022-12-22T11:53:55.640Z,40.00
2022-12-22T11:56:29.342Z,45.50
2022-12-22T11:59:18.864Z,48.80
2022-12-22T12:01:59.045Z,48.60
2022-12-22T12:04:39.436Z,53.00
2022-12-22T12:07:34.576Z,48.60
2022-12-22T12:10:22.347Z,54.40
2022-12-22T12:13:27.412Z,50.50
2022-12-22T12:16:37.437Z,50.20
2022-12-22T12:19:51.660Z,55.70
2022-12-22T12:22:25.873Z,57.00
2022-12-22T12:25:25.608Z,56.20
2022-12-22T12:28:05.200Z,50.30
2022-12-22T12:30:53.893Z,50.30
2022-12-22T12:34:01.127Z,49.90
2022-12-22T12:36:43.427Z,53.10
2022-12-22T12:39:31.471Z,46.50
2022-12-22T12:42:43.602Z,56.40
2022-12-22T12:45:41.295Z,44.70
2022-12-22T12:48:24.641Z,47.70
2022-12-22T12:50:59.533Z,54.20
2022-12-22T12:53:30.124Z,57.50
2022-12-22T12:56:09.415Z,48.80
2022-12-22T12:58:37.907Z,51.60
2022-12-22T13:01:12.157Z,48.10
2022-12-22T13:06:49.818Z,45.60
2022-12-22T13:09:49.845Z,47.00
2022-12-22T13:12:39.793Z,48.30
2022-12-22T13:15:30.135Z,42.90
2022-12-22T13:18:00.603Z,50.10
2022-12-22T13:20:37.493Z,46.10
2022-12-22T13:23:14.783Z,50.80
2022-12-22T13:26:00.103Z,47.30
2022-12-22T13:28:29.733Z,46.60
2022-12-22T13:31:06.577Z,48.90
2022-12-22T13:36:18.666Z,49.40
2022-12-22T13:46:37.565Z,51.80
2022-12-22T13:49:13.693Z,53.00
2022-12-22T13:51:48.900Z,49.20
2022-12-22T13:54:39.419Z,50.40
2022-12-22T13:57:22.282Z,54.80
2022-12-22T13:59:52.149Z,55.50
2022-12-22T14:02:22.581Z,55.70
2022-12-22T14:05:09.035Z,55.30
2022-12-22T14:07:37.267Z,46.60
2022-12-22T14:10:07.462Z,48.10
2022-12-22T14:12:44.794Z,47.40
2022-12-22T14:15:19.435Z,48.10
2022-12-22T14:17:52.658Z,59.40
2022-12-22T14:20:38.131Z,52.70
2022-12-22T14:23:12.657Z,50.60
2022-12-22T14:25:44.196Z,48.60
2022-12-22T14:28:39.385Z,51.70
2022-12-22T14:31:08.347Z,48.60
2022-12-22T14:33:36.711Z,46.40
2022-12-22T14:36:20.806Z,48.70
2022-12-22T14:38:54.884Z,46.70
2022-12-22T14:41:43.049Z,50.10
2022-12-22T14:44:28.405Z,46.90
2022-12-22T14:47:17.922Z,49.40
2022-12-22T14:50:26.674Z,60.20
2022-12-22T14:52:58.845Z,55.40
2022-12-22T14:55:39.797Z,57.00
2022-12-22T14:58:16.269Z,63.70
2022-12-22T15:01:09.360Z,97.30
2022-12-22T15:03:38.982Z,65.20
2022-12-22T15:06:29.487Z,55.80
2022-12-22T15:09:07.338Z,51.60
2022-12-22T15:11:39.031Z,52.40
2022-12-22T15:14:15.531Z,51.30
2022-12-22T15:16:45.549Z,50.10
2022-12-22T15:19:22.513Z,50.40
2022-12-22T15:24:20.047Z,58.60
2022-12-22T15:26:48.324Z,52.10
2022-12-22T15:29:16.639Z,58.20
2022-12-22T15:31:45.035Z,61.60
2022-12-22T15:34:30.965Z,55.10
2022-12-22T15:36:59.149Z,57.10
2022-12-22T15:39:30.933Z,54.90
2022-12-22T15:42:05.928Z,57.00
2022-12-22T15:44:38.667Z,56.50
2022-12-22T15:47:10.680Z,58.40
2022-12-22T15:49:40.316Z,56.10
2022-12-22T15:52:13.323Z,57.60
2022-12-22T15:54:41.826Z,44.30
2022-12-22T15:57:14.231Z,62.50
2022-12-22T15:59:45.935Z,64.30
2022-12-22T16:02:16.693Z,64.20
2022-12-22T16:04:46.842Z,60.20
2022-12-22T16:07:16.831Z,54.50
2022-12-22T16:09:49.285Z,63.80
2022-12-22T16:12:20.999Z,67.10
2022-12-22T16:14:56.431Z,64.40
2022-12-22T16:17:28.752Z,63.80
2022-12-22T16:19:58.927Z,72.90
2022-12-22T16:22:46.490Z,65.40
2022-12-22T16:25:43.221Z,56.60
2022-12-22T16:28:41.719Z,60.00
2022-12-22T16:32:03.335Z,54.60
2022-12-22T16:34:43.985Z,60.30
2022-12-22T16:37:17.301Z,61.00
2022-12-22T16:39:52.838Z,58.80
2022-12-22T16:45:23.308Z,57.50
2022-12-22T16:47:53.972Z,65.90
2022-12-22T16:50:32.437Z,64.10
2022-12-22T16:53:05.359Z,68.90
2022-12-22T16:55:35.947Z,72.50
2022-12-22T16:58:12.988Z,74.80
2022-12-22T17:00:45.220Z,69.00
2022-12-22T17:03:24.391Z,71.50
2022-12-22T17:05:56.309Z,79.10
2022-12-22T17:08:28.018Z,74.70
2022-12-22T17:11:10.388Z,79.10
2022-12-22T17:13:39.690Z,71.40
2022-12-22T17:16:19.036Z,71.60
2022-12-22T17:18:48.185Z,68.70
2022-12-22T17:21:19.187Z,70.70
2022-12-22T17:23:52.019Z,71.40
2022-12-22T17:26:32.024Z,74.10
2022-12-22T17:29:00.996Z,79.60
2022-12-22T17:31:29.881Z,68.70
2022-12-22T17:33:58.285Z,76.70
2022-12-22T17:36:35.876Z,84.60
2022-12-22T17:39:05.140Z,68.60
2022-12-22T17:41:33.869Z,70.80
2022-12-22T17:44:03.421Z,67.30
2022-12-22T17:46:37.541Z,69.00
2022-12-22T17:49:05.689Z,71.40
2022-12-22T17:51:34.155Z,80.50
2022-12-22T17:54:02.574Z,67.00
2022-12-22T17:56:31.333Z,68.70
2022-12-22T17:58:59.449Z,70.60
2022-12-22T18:01:32.501Z,76.90
2022-12-22T18:04:01.041Z,75.60
2022-12-22T18:06:34.561Z,77.40
2022-12-22T18:09:26.812Z,76.00
2022-12-22T18:11:59.274Z,75.00
2022-12-22T18:14:32.604Z,67.70
2022-12-22T18:17:35.513Z,72.90
2022-12-22T18:20:33.485Z,74.70
2022-12-22T18:23:32.235Z,71.70
2022-12-22T18:26:01.883Z,68.80
2022-12-22T18:28:32.303Z,63.00
2022-12-22T18:31:00.557Z,67.80
2022-12-22T18:33:28.707Z,67.20
2022-12-22T18:35:59.212Z,64.00
2022-12-22T18:38:33.814Z,62.90
2022-12-22T18:41:02.370Z,59.40
2022-12-22T18:43:30.632Z,59.10
2022-12-22T18:45:58.864Z,60.50
2022-12-22T18:48:28.262Z,60.20
2022-12-22T18:50:56.684Z,61.40
2022-12-22T18:53:29.581Z,64.00
2022-12-22T18:55:58.742Z,61.10
2022-12-22T18:58:29.170Z,67.10
2022-12-22T19:01:03.852Z,63.80
2022-12-22T19:03:34.021Z,61.00
2022-12-22T19:06:04.814Z,57.10
2022-12-22T19:08:35.462Z,65.20
2022-12-22T19:11:08.379Z,58.70
2022-12-22T19:13:45.535Z,62.20
2022-12-22T19:16:19.788Z,58.70
2022-12-22T19:18:51.221Z,54.70
2022-12-22T19:21:21.048Z,58.20
2022-12-22T19:23:50.560Z,54.30
2022-12-22T19:26:27.015Z,61.90
2022-12-22T19:29:01.751Z,57.90
2022-12-22T19:31:35.252Z,66.30
2022-12-22T19:34:10.052Z,60.20
2022-12-22T19:36:41.713Z,58.90
2022-12-22T19:39:10.189Z,55.50
2022-12-22T19:42:03.496Z,53.70
2022-12-22T19:44:34.805Z,64.10
2022-12-22T19:47:03.822Z,68.10
2022-12-22T19:49:32.018Z,66.80
2022-12-22T19:52:00.817Z,73.50
2022-12-22T19:54:32.473Z,66.50
2022-12-22T19:57:06.864Z,65.50
2022-12-22T19:59:47.732Z,62.70
2022-12-22T20:02:22.559Z,64.30
2022-12-22T20:04:53.253Z,59.10
2022-12-22T20:07:25.599Z,64.40
2022-12-22T20:09:53.945Z,60.20
2022-12-22T20:12:26.471Z,61.60
2022-12-22T20:14:55.315Z,63.80
2022-12-22T20:17:23.714Z,58.20
2022-12-22T20:19:51.828Z,60.80
2022-12-22T20:22:22.712Z,57.10
2022-12-22T20:24:51.513Z,55.50
2022-12-22T20:27:31.657Z,55.60
2022-12-22T20:30:00.149Z,57.40
2022-12-22T20:32:29.007Z,56.50
2022-12-22T20:34:57.284Z,53.50
2022-12-22T20:37:25.699Z,57.60
2022-12-22T20:39:53.990Z,59.40
2022-12-22T20:42:24.698Z,57.90
2022-12-22T20:45:03.442Z,54.60
2022-12-22T20:47:34.313Z,64.80
2022-12-22T20:50:02.542Z,58.20
2022-12-22T20:52:30.732Z,54.80
2022-12-22T20:54:59.023Z,55.10
2022-12-22T20:57:27.896Z,52.10
2022-12-22T20:59:56.930Z,59.90
2022-12-22T21:02:29.409Z,56.20
2022-12-22T21:04:58.102Z,60.90
2022-12-22T21:07:27.474Z,52.20
2022-12-22T21:09:55.615Z,53.90
2022-12-22T21:12:25.043Z,53.20
2022-12-22T21:14:53.404Z,53.80
2022-12-22T21:17:24.620Z,58.30
2022-12-22T21:19:53.008Z,56.20
2022-12-22T21:22:21.428Z,53.00
2022-12-22T21:24:49.831Z,54.20
2022-12-22T21:27:20.540Z,55.30
2022-12-22T21:29:48.737Z,56.00
2022-12-22T21:32:16.981Z,47.80
2022-12-22T21:34:45.086Z,49.30
2022-12-22T21:37:18.970Z,53.60
2022-12-22T21:39:48.528Z,50.80
2022-12-22T21:42:20.010Z,50.60
2022-12-22T21:44:48.281Z,50.60
2022-12-22T21:47:20.862Z,46.40
2022-12-22T21:49:49.056Z,46.20
2022-12-22T21:52:17.227Z,48.60
2022-12-22T21:54:45.489Z,51.10
2022-12-22T21:57:18.400Z,47.40
2022-12-22T21:59:47.148Z,46.60
2022-12-22T22:02:18.271Z,46.10
2022-12-22T22:04:54.114Z,49.40
2022-12-22T22:07:23.368Z,50.50
2022-12-22T22:09:51.620Z,52.50
2022-12-22T22:12:37.029Z,50.00
2022-12-22T22:15:07.999Z,49.60
2022-12-22T22:17:36.204Z,58.00
2022-12-22T22:20:06.752Z,62.20
2022-12-22T22:22:35.158Z,51.20
2022-12-22T22:25:04.142Z,56.10
2022-12-22T22:27:32.335Z,49.40
2022-12-22T22:30:00.507Z,51.70
2022-12-22T22:32:29.145Z,51.00
2022-12-22T22:34:57.311Z,50.50
2022-12-22T22:37:25.628Z,46.10
2022-12-22T22:39:53.748Z,47.20
2022-12-22T22:42:21.982Z,48.60
2022-12-22T22:44:50.158Z,50.90
2022-12-22T22:47:18.360Z,39.30
2022-12-22T22:49:46.659Z,47.10
2022-12-22T22:52:18.893Z,38.50
2022-12-22T22:54:47.726Z,42.80
2022-12-22T22:57:18.319Z,48.20
2022-12-22T22:59:48.257Z,47.60
2022-12-22T23:02:20.099Z,44.40
2022-12-22T23:04:50.995Z,56.00
2022-12-22T23:07:19.393Z,44.80
2022-12-22T23:09:47.566Z,49.00
2022-12-22T23:12:15.935Z,44.10
2022-12-22T23:14:44.096Z,36.80
2022-12-22T23:17:12.494Z,43.00
2022-12-22T23:19:42.026Z,41.50
2022-12-22T23:22:10.341Z,46.70
2022-12-22T23:24:38.904Z,41.70
2022-12-22T23:27:07.400Z,41.80
2022-12-22T23:29:37.053Z,39.10
2022-12-22T23:32:06.232Z,39.50
2022-12-22T23:34:35.995Z,36.30
2022-12-22T23:37:04.715Z,45.50
2022-12-22T23:39:37.473Z,41.60
2022-12-22T23:42:06.056Z,38.30
2022-12-22T23:44:36.460Z,39.40
2022-12-22T23:47:05.025Z,39.10
2022-12-22T23:49:33.340Z,41.90
2022-12-22T23:52:01.643Z,39.90
2022-12-22T23:54:30.464Z,37.20
2022-12-22T23:56:59.416Z,44.00
2022-12-22T23:59:29.943Z,38.80
